Aviation Digital Data Service (ADDS)

Output produced by METARs form (1931 UTC 17 February 2018)
found at http://aviationweather.gov/adds/metars/
 
KBFD 171926Z 1719/1818 15007G15KT P6SM BKN020 OVC100 
     FM172200 18007KT 1SM -SN OVC020 
     FM180200 22005KT 2SM -SN OVC018 
     FM180600 28009KT 5SM -SHSN OVC018 
     FM181400 30008G15KT P6SM SCT025